O'Leary, Canada
Current Conditions -  °F | °C
As of 2:00 PM on Thursday 30 Oct 2014 (Local Time) from CYQM Reporting Station
Broken Clouds Broken Clouds  
Wind Chill: 50°   Ceiling: 3200
Heat Index: 50°   Visibility: 15mi
Dew Point: 39°   Wind: 12mph
Humidity: 66%   Direction: 250°WSW
Pressure: 29.76"   Gusts: 17mph
Location:  46.7°N, 64.22°W
Report Text: CYQM 301700Z 25010G15KT 15SM BKN032 BKN220 10/04 A2976 RMK SC6CI1 SLP080
Loading
Personal Weather Stations






























Interactive Weather Map
Tropical Storm Tracking
New forecast layout! Learn more

10-Day Weather Forecast

Advertisements
Track Severe Weather on mobile